Time;durP1;ratioP1;P1;durP2;ratioP2;P2;SDS_P1;SDS_P2;PMS_P1;PMS_P2;Temp;Humidity;BMP_temperature;BMP_pressure;BME280_temperature;BME280_humidity;BME280_pressure;Samples;Min_cycle;Max_cycle;Signal;HPM_P1;HPM_P2
2022/03/26 00:00:49;;;;;;;17.77;10.60;;;10.00;80.20;;;;;;5066868;28;21178;-76
2022/03/26 00:03:17;;;;;;;14.47;10.50;;;10.00;80.20;;;;;;5068053;28;20525;-74
2022/03/26 00:05:44;;;;;;;15.37;10.87;;;10.00;80.50;;;;;;5072624;28;20493;-75
2022/03/26 00:08:11;;;;;;;15.70;9.57;;;9.90;81.90;;;;;;5067790;28;21255;-74
2022/03/26 00:10:40;;;;;;;16.30;9.80;;;9.90;82.70;;;;;;5068228;28;21187;-74
2022/03/26 00:13:07;;;;;;;12.73;9.20;;;9.80;82.40;;;;;;5067324;28;20819;-74
2022/03/26 00:15:34;;;;;;;15.80;11.20;;;9.80;83.40;;;;;;5075701;28;20852;-74
2022/03/26 00:18:01;;;;;;;14.27;9.87;;;9.80;83.00;;;;;;5073933;28;20796;-74
2022/03/26 00:20:27;;;;;;;15.10;9.30;;;9.80;83.00;;;;;;5069471;28;20530;-73
2022/03/26 00:22:54;;;;;;;15.77;10.27;;;9.70;83.20;;;;;;5071147;28;20450;-74
2022/03/26 00:25:21;;;;;;;18.23;9.97;;;9.70;83.60;;;;;;5070822;28;20558;-74
2022/03/26 00:27:50;;;;;;;19.53;11.70;;;9.60;84.00;;;;;;5072308;28;20534;-74
2022/03/26 00:30:17;;;;;;;15.90;9.97;;;9.60;84.30;;;;;;5071158;28;20766;-74
2022/03/26 00:32:43;;;;;;;13.40;9.37;;;9.60;84.40;;;;;;5072620;28;20937;-74
2022/03/26 00:35:10;;;;;;;16.33;11.95;;;9.60;84.60;;;;;;5072640;28;20470;-74
2022/03/26 00:37:38;;;;;;;14.88;10.77;;;9.70;85.10;;;;;;5074064;28;20299;-74
2022/03/26 00:40:06;;;;;;;15.90;9.45;;;9.60;85.10;;;;;;5064194;28;20211;-74
2022/03/26 00:42:33;;;;;;;12.30;9.25;;;9.60;84.70;;;;;;5061144;28;20232;-74
2022/03/26 00:45:01;;;;;;;15.87;10.73;;;9.60;84.80;;;;;;5061178;28;20237;-74
2022/03/26 00:47:28;;;;;;;14.73;9.80;;;9.50;84.40;;;;;;5061195;28;20459;-74
2022/03/26 00:49:55;;;;;;;13.82;9.00;;;9.50;85.90;;;;;;5061728;28;20509;-74
2022/03/26 00:52:21;;;;;;;17.80;9.63;;;9.50;86.40;;;;;;5061704;28;20892;-74
2022/03/26 00:54:48;;;;;;;14.00;10.97;;;9.50;87.00;;;;;;5062156;28;20544;-74
2022/03/26 00:57:16;;;;;;;15.60;10.30;;;9.50;87.90;;;;;;5061304;28;20451;-75
2022/03/26 00:59:43;;;;;;;14.02;9.55;;;9.40;88.50;;;;;;5061198;28;20278;-75
2022/03/26 01:02:11;;;;;;;15.33;9.13;;;9.40;88.80;;;;;;5065479;28;20216;-74
2022/03/26 01:04:38;;;;;;;17.35;9.93;;;9.40;89.80;;;;;;5073181;28;20539;-75
2022/03/26 01:07:05;;;;;;;13.60;11.33;;;9.40;90.00;;;;;;5070375;28;20285;-74
2022/03/26 01:09:32;;;;;;;15.65;10.02;;;9.30;90.80;;;;;;5064916;28;20509;-75
2022/03/26 01:11:58;;;;;;;14.73;10.23;;;9.30;90.80;;;;;;5072584;28;20664;-75
2022/03/26 01:14:25;;;;;;;16.95;9.88;;;9.20;91.10;;;;;;5066497;28;20225;-74
2022/03/26 01:16:52;;;;;;;13.60;9.02;;;9.20;91.50;;;;;;5065241;28;20270;-75
2022/03/26 01:19:20;;;;;;;16.13;9.20;;;9.10;92.30;;;;;;5071621;28;20257;-74
2022/03/26 01:21:46;;;;;;;19.98;11.07;;;9.10;93.10;;;;;;5071526;28;20254;-74
2022/03/26 01:24:13;;;;;;;16.27;10.77;;;9.10;93.50;;;;;;5070973;28;20259;-74
2022/03/26 01:26:40;;;;;;;16.38;10.35;;;9.20;93.90;;;;;;5069374;28;20220;-75
2022/03/26 01:29:07;;;;;;;16.20;9.02;;;9.20;95.00;;;;;;5081420;28;20216;-75
2022/03/26 01:31:34;;;;;;;13.77;9.70;;;9.20;97.10;;;;;;5071558;28;20215;-75
2022/03/26 01:34:01;;;;;;;11.88;8.80;;;9.10;96.40;;;;;;5070105;28;20301;-74
2022/03/26 01:36:29;;;;;;;16.60;10.80;;;9.00;98.40;;;;;;5063740;28;20352;-74
2022/03/26 01:38:56;;;;;;;19.27;11.57;;;9.00;99.90;;;;;;5067982;28;20596;-74
2022/03/26 01:41:23;;;;;;;15.02;10.55;;;8.90;99.90;;;;;;5068943;28;20261;-74
2022/03/26 01:43:50;;;;;;;15.73;11.88;;;8.90;99.90;;;;;;5066875;28;20297;-74
2022/03/26 01:46:16;;;;;;;16.58;10.07;;;8.90;99.90;;;;;;5069849;28;20287;-74
2022/03/26 01:48:43;;;;;;;25.13;12.35;;;8.80;99.90;;;;;;5065697;28;20220;-74
2022/03/26 01:51:15;;;;;;;20.65;12.13;;;8.70;99.90;;;;;;5068592;28;20200;-74
2022/03/26 01:53:46;;;;;;;18.00;12.77;;;8.60;99.90;;;;;;5069187;28;20818;-74
2022/03/26 01:56:15;;;;;;;21.30;11.95;;;8.60;99.90;;;;;;5075126;28;20200;-74
2022/03/26 01:58:42;;;;;;;15.05;10.73;;;8.50;99.90;;;;;;5069204;28;20205;-74
2022/03/26 02:01:09;;;;;;;18.65;12.60;;;8.40;99.90;;;;;;5077459;28;20295;-74
2022/03/26 02:03:36;;;;;;;17.48;11.73;;;8.40;99.90;;;;;;5066877;28;20213;-74
2022/03/26 02:06:03;;;;;;;23.27;12.07;;;8.40;99.90;;;;;;5064258;28;20835;-76
2022/03/26 02:08:31;;;;;;;19.80;14.10;;;8.30;99.90;;;;;;5069701;28;20212;-75
2022/03/26 02:10:59;;;;;;;16.17;11.35;;;8.30;99.90;;;;;;5062785;28;20235;-74
2022/03/26 02:13:26;;;;;;;14.32;10.93;;;8.30;99.90;;;;;;5068137;28;20197;-74
2022/03/26 02:15:52;;;;;;;16.23;9.63;;;8.40;99.90;;;;;;5064282;28;20201;-74
2022/03/26 02:18:19;;;;;;;18.75;12.68;;;8.40;99.90;;;;;;5067559;28;20216;-74
2022/03/26 02:20:48;;;;;;;20.38;12.05;;;8.40;99.90;;;;;;5075092;28;20200;-74
2022/03/26 02:23:15;;;;;;;17.80;11.13;;;8.40;99.90;;;;;;5072948;28;20776;-74
2022/03/26 02:25:41;;;;;;;16.45;11.70;;;8.40;99.90;;;;;;5067176;28;20228;-74
2022/03/26 02:28:09;;;;;;;15.95;11.88;;;8.30;99.90;;;;;;5077970;28;20225;-74
2022/03/26 02:30:36;;;;;;;18.08;12.90;;;8.30;99.90;;;;;;5065514;28;20208;-74
2022/03/26 02:33:03;;;;;;;17.13;11.32;;;8.30;99.90;;;;;;5068139;28;20296;-74
2022/03/26 02:35:30;;;;;;;18.17;13.35;;;8.30;99.90;;;;;;5070916;28;20297;-73
2022/03/26 02:37:58;;;;;;;19.25;11.95;;;8.20;99.90;;;;;;5064329;28;20282;-73
2022/03/26 02:40:25;;;;;;;20.98;11.82;;;8.20;99.90;;;;;;5066393;28;20213;-73
2022/03/26 02:42:52;;;;;;;18.95;13.70;;;8.10;99.90;;;;;;5066831;28;20250;-73
2022/03/26 02:45:19;;;;;;;20.25;11.48;;;8.10;99.90;;;;;;5065972;28;20297;-73
2022/03/26 02:47:48;;;;;;;17.60;12.45;;;8.10;99.90;;;;;;5066262;28;20201;-73
2022/03/26 02:50:14;;;;;;;15.35;10.90;;;8.00;99.90;;;;;;5067234;28;20544;-73
2022/03/26 02:52:41;;;;;;;19.02;13.05;;;8.00;99.90;;;;;;5068948;28;20262;-73
2022/03/26 02:55:10;;;;;;;17.15;12.20;;;8.00;99.90;;;;;;5064426;28;20228;-73
2022/03/26 02:57:37;;;;;;;16.27;10.98;;;7.90;99.90;;;;;;5073160;28;20276;-73
2022/03/26 03:00:05;;;;;;;15.70;9.65;;;7.90;99.90;;;;;;5066413;28;20213;-73
2022/03/26 03:02:32;;;;;;;15.15;12.40;;;7.90;99.90;;;;;;5069038;28;20200;-73
2022/03/26 03:04:59;;;;;;;14.45;11.50;;;7.90;99.90;;;;;;5074046;28;20599;-73
2022/03/26 03:07:25;;;;;;;18.17;10.93;;;7.80;99.90;;;;;;5075609;28;20231;-73
2022/03/26 03:09:52;;;;;;;15.80;11.95;;;7.80;99.90;;;;;;5076394;28;20535;-73
2022/03/26 03:12:22;;;;;;;16.40;10.57;;;7.80;99.90;;;;;;5075171;28;20269;-73
2022/03/26 03:14:48;;;;;;;19.38;10.38;;;7.80;99.90;;;;;;5078562;28;20228;-73
2022/03/26 03:17:16;;;;;;;11.60;9.25;;;7.80;99.90;;;;;;5074266;28;20217;-73
2022/03/26 03:19:43;;;;;;;16.80;11.63;;;7.80;99.90;;;;;;5071752;28;20255;-73
2022/03/26 03:22:10;;;;;;;16.75;11.27;;;7.80;99.90;;;;;;5083423;28;20244;-73
2022/03/26 03:24:37;;;;;;;16.98;11.23;;;7.80;99.90;;;;;;5066240;28;20221;-73
2022/03/26 03:27:04;;;;;;;15.70;11.43;;;7.80;99.90;;;;;;5082113;28;20242;-73
2022/03/26 03:29:32;;;;;;;16.23;11.45;;;7.70;99.90;;;;;;5071893;28;20274;-73
2022/03/26 03:31:59;;;;;;;15.50;11.10;;;7.70;99.90;;;;;;5070981;28;20239;-73
2022/03/26 03:34:25;;;;;;;16.60;10.68;;;7.70;99.90;;;;;;5065917;28;20278;-73
2022/03/26 03:36:52;;;;;;;13.55;11.25;;;7.60;99.90;;;;;;5071720;28;20404;-73
2022/03/26 03:39:19;;;;;;;19.55;12.40;;;7.60;99.90;;;;;;5084726;28;20204;-73
2022/03/26 03:41:46;;;;;;;14.20;11.40;;;7.60;99.90;;;;;;5072580;28;20251;-73
2022/03/26 03:44:12;;;;;;;36.65;11.23;;;7.60;99.90;;;;;;5073376;28;20225;-73
2022/03/26 03:46:40;;;;;;;15.07;11.20;;;7.60;99.90;;;;;;5085201;28;20318;-72
2022/03/26 03:49:07;;;;;;;14.43;11.05;;;7.60;99.90;;;;;;5065757;28;20204;-73
2022/03/26 03:51:33;;;;;;;13.63;10.10;;;7.50;99.90;;;;;;5079164;28;20200;-73
2022/03/26 03:54:00;;;;;;;13.07;10.52;;;7.40;99.90;;;;;;5080539;28;20231;-73
2022/03/26 03:56:27;;;;;;;17.63;11.30;;;7.40;99.90;;;;;;5076863;28;20276;-73
2022/03/26 03:58:53;;;;;;;19.67;12.30;;;7.40;99.90;;;;;;5075247;28;20257;-73
2022/03/26 04:01:20;;;;;;;19.30;11.98;;;7.30;99.90;;;;;;5064922;28;20203;-72
2022/03/26 04:03:48;;;;;;;17.83;12.80;;;7.30;99.90;;;;;;5066048;28;20243;-73
2022/03/26 04:06:15;;;;;;;17.23;11.38;;;7.20;99.90;;;;;;5073300;28;20720;-73
2022/03/26 04:08:42;;;;;;;18.63;12.82;;;7.20;99.90;;;;;;5070227;28;20239;-73
2022/03/26 04:11:09;;;;;;;16.00;11.40;;;7.20;99.90;;;;;;5070153;28;20609;-73
2022/03/26 04:13:35;;;;;;;17.17;12.80;;;7.20;99.90;;;;;;5070413;28;20200;-72
2022/03/26 04:16:02;;;;;;;107.75;101.10;;;7.10;99.90;;;;;;5075133;28;20328;-72
2022/03/26 04:18:29;;;;;;;462.98;448.88;;;7.10;99.90;;;;;;5074317;28;20284;-74
2022/03/26 04:20:57;;;;;;;16.73;11.80;;;7.00;99.90;;;;;;5070327;28;20208;-74
2022/03/26 04:23:24;;;;;;;17.50;12.18;;;6.90;99.90;;;;;;5070905;28;20240;-75
2022/03/26 04:25:51;;;;;;;13.90;10.05;;;6.90;99.90;;;;;;5067557;28;20272;-74
2022/03/26 04:28:17;;;;;;;17.02;12.40;;;6.90;99.90;;;;;;5070157;28;20642;-74
2022/03/26 04:30:44;;;;;;;16.10;10.35;;;6.90;99.90;;;;;;5070854;28;20266;-78
2022/03/26 04:33:11;;;;;;;15.02;11.10;;;6.80;99.90;;;;;;5072710;28;20283;-73
2022/03/26 04:35:38;;;;;;;13.00;10.32;;;6.80;99.90;;;;;;5070413;28;20222;-73
2022/03/26 04:38:06;;;;;;;15.95;10.88;;;6.80;99.90;;;;;;5071870;28;20199;-73
2022/03/26 04:40:33;;;;;;;12.55;10.63;;;6.80;99.90;;;;;;5067818;28;20212;-74
2022/03/26 04:43:00;;;;;;;16.63;9.48;;;6.80;99.90;;;;;;5080008;28;20699;-75
2022/03/26 04:45:27;;;;;;;15.30;10.43;;;6.80;99.90;;;;;;5071947;28;20974;-73
2022/03/26 04:47:53;;;;;;;16.30;10.20;;;6.70;99.90;;;;;;5080219;28;20651;-74
2022/03/26 04:50:20;;;;;;;12.13;8.40;;;6.60;99.90;;;;;;5075172;28;20205;-75
2022/03/26 04:52:48;;;;;;;15.60;8.15;;;6.60;99.90;;;;;;5085385;28;20316;-74
2022/03/26 04:55:18;;;;;;;11.68;8.70;;;6.60;99.90;;;;;;5073713;28;20987;-75
2022/03/26 04:57:47;;;;;;;17.23;10.05;;;6.60;99.90;;;;;;5088381;28;20231;-76
2022/03/26 05:00:16;;;;;;;12.45;9.93;;;6.60;99.90;;;;;;5087177;28;20297;-74
2022/03/26 05:02:43;;;;;;;13.57;8.43;;;6.60;99.90;;;;;;5073909;28;20268;-74
2022/03/26 05:05:11;;;;;;;15.68;10.00;;;6.60;99.90;;;;;;5079716;28;20242;-75
2022/03/26 05:07:48;;;;;;;14.27;9.70;;;6.60;99.90;;;;;;5082765;28;20435;-76
2022/03/26 05:10:18;;;;;;;13.65;8.50;;;6.50;99.90;;;;;;5073818;28;20281;-75
2022/03/26 05:12:46;;;;;;;12.80;9.35;;;6.50;99.90;;;;;;5075481;28;20243;-75
2022/03/26 05:15:13;;;;;;;11.43;8.55;;;6.50;99.90;;;;;;5075709;28;20275;-74
2022/03/26 05:17:40;;;;;;;13.60;8.95;;;6.50;99.90;;;;;;5070770;28;20246;-74
2022/03/26 05:20:08;;;;;;;11.68;9.05;;;6.50;99.90;;;;;;5077413;28;20199;-76
2022/03/26 05:22:35;;;;;;;10.88;7.43;;;6.40;99.90;;;;;;5071502;28;20308;-74
2022/03/26 05:25:02;;;;;;;14.68;9.40;;;6.40;99.90;;;;;;5076605;28;20220;-75
2022/03/26 05:27:30;;;;;;;13.52;9.88;;;6.30;99.90;;;;;;5080321;28;20297;-76
2022/03/26 05:29:58;;;;;;;14.88;9.98;;;6.30;99.90;;;;;;5072581;28;20209;-74
2022/03/26 05:32:24;;;;;;;13.85;9.35;;;6.30;99.90;;;;;;5071413;28;20722;-75
2022/03/26 05:34:51;;;;;;;11.00;7.68;;;6.40;99.90;;;;;;5067759;28;20232;-75
2022/03/26 05:37:18;;;;;;;12.45;8.50;;;6.40;99.90;;;;;;5082067;28;20208;-75
2022/03/26 05:39:45;;;;;;;11.20;6.38;;;6.40;99.90;;;;;;5072999;28;20630;-73
2022/03/26 05:42:13;;;;;;;10.73;8.25;;;6.40;99.90;;;;;;5084803;28;20281;-73
2022/03/26 05:44:41;;;;;;;12.80;8.18;;;6.40;99.90;;;;;;5083099;28;20325;-73
2022/03/26 05:47:08;;;;;;;10.90;8.10;;;6.30;99.90;;;;;;5077133;28;20223;-72
2022/03/26 05:49:35;;;;;;;10.10;7.60;;;6.40;99.90;;;;;;5072701;28;20613;-74
2022/03/26 05:52:02;;;;;;;8.63;6.75;;;6.30;99.90;;;;;;5087626;28;20210;-73
2022/03/26 05:54:29;;;;;;;12.60;8.43;;;6.40;99.90;;;;;;5086877;28;20595;-73
2022/03/26 05:56:56;;;;;;;11.75;8.18;;;6.40;99.90;;;;;;5068046;28;20818;-73
2022/03/26 05:59:24;;;;;;;14.10;9.38;;;6.40;99.90;;;;;;5073646;28;20669;-73
2022/03/26 06:01:53;;;;;;;13.50;8.65;;;6.50;99.90;;;;;;5071544;28;20276;-73
2022/03/26 06:04:20;;;;;;;11.30;9.20;;;6.50;99.90;;;;;;5084908;28;20244;-73
2022/03/26 06:06:48;;;;;;;10.43;9.27;;;6.50;99.90;;;;;;5065898;28;20694;-72
2022/03/26 06:09:14;;;;;;;14.98;8.88;;;6.60;99.90;;;;;;5074485;28;20704;-72
2022/03/26 06:11:41;;;;;;;8.70;7.57;;;6.60;99.90;;;;;;5069697;28;20200;-72
2022/03/26 06:14:07;;;;;;;14.25;8.55;;;6.60;99.90;;;;;;5081766;28;20295;-72
2022/03/26 06:16:35;;;;;;;16.13;8.25;;;6.70;99.90;;;;;;5073327;28;20207;-72
2022/03/26 06:19:03;;;;;;;17.13;8.30;;;6.70;99.90;;;;;;5068398;28;20285;-72
2022/03/26 06:21:30;;;;;;;14.82;8.68;;;6.70;99.90;;;;;;5078151;28;20262;-72
2022/03/26 06:23:58;;;;;;;10.45;6.50;;;6.70;99.90;;;;;;5075913;28;20261;-71
2022/03/26 06:26:25;;;;;;;9.63;7.60;;;6.80;99.90;;;;;;5077712;28;20282;-71
2022/03/26 06:28:52;;;;;;;10.15;8.15;;;6.80;99.90;;;;;;5069449;28;20227;-71
2022/03/26 06:31:19;;;;;;;9.30;6.40;;;6.80;99.90;;;;;;5069258;28;20205;-72
2022/03/26 06:33:47;;;;;;;12.73;8.23;;;6.90;99.90;;;;;;5064655;28;20298;-72
2022/03/26 06:36:14;;;;;;;12.82;9.07;;;6.90;99.90;;;;;;5068952;28;20283;-72
2022/03/26 06:38:42;;;;;;;16.92;8.98;;;7.00;99.90;;;;;;5084555;28;20280;-72
2022/03/26 06:41:09;;;;;;;13.98;8.32;;;7.00;99.90;;;;;;5068289;28;20208;-72
2022/03/26 06:43:36;;;;;;;14.00;8.25;;;7.10;99.90;;;;;;5070505;28;20558;-73
2022/03/26 06:46:03;;;;;;;12.48;7.78;;;7.20;99.90;;;;;;5064876;28;20239;-72
2022/03/26 06:48:30;;;;;;;17.70;10.10;;;7.20;99.90;;;;;;5077153;28;20621;-73
2022/03/26 06:50:56;;;;;;;10.93;8.10;;;7.30;99.90;;;;;;5071876;28;20352;-72
2022/03/26 06:53:24;;;;;;;11.90;9.77;;;7.40;99.90;;;;;;5085206;28;20219;-72
2022/03/26 06:55:51;;;;;;;12.25;7.43;;;7.50;99.90;;;;;;5071431;28;20277;-75
2022/03/26 06:58:18;;;;;;;13.30;7.60;;;7.50;99.90;;;;;;5063454;28;20189;-72
2022/03/26 07:00:44;;;;;;;18.75;8.85;;;7.60;99.90;;;;;;5065098;28;20304;-72
2022/03/26 07:03:11;;;;;;;9.65;7.30;;;7.70;99.90;;;;;;5076094;28;20257;-71
2022/03/26 07:05:38;;;;;;;15.57;8.90;;;7.80;99.90;;;;;;5071035;28;20240;-72
2022/03/26 07:08:05;;;;;;;12.93;8.00;;;7.90;99.90;;;;;;5069506;28;20312;-71
2022/03/26 07:10:34;;;;;;;9.48;7.05;;;8.00;99.90;;;;;;5070888;28;20204;-72
2022/03/26 07:13:00;;;;;;;9.35;8.48;;;8.00;99.90;;;;;;5065883;28;20668;-72
2022/03/26 07:15:28;;;;;;;15.02;8.07;;;8.10;99.90;;;;;;5078265;28;20241;-72
2022/03/26 07:17:55;;;;;;;12.40;9.02;;;8.20;99.90;;;;;;5069566;28;20207;-70
2022/03/26 07:20:22;;;;;;;10.73;8.82;;;8.30;99.90;;;;;;5070946;28;20273;-74
2022/03/26 07:22:48;;;;;;;13.05;9.35;;;8.40;99.90;;;;;;5076320;28;20208;-70
2022/03/26 07:25:15;;;;;;;12.38;8.88;;;8.50;99.90;;;;;;5073417;28;20257;-72
2022/03/26 07:27:43;;;;;;;12.85;8.55;;;8.60;99.90;;;;;;5077101;28;20314;-71
2022/03/26 07:30:11;;;;;;;10.18;7.72;;;8.70;99.90;;;;;;5069589;28;20254;-71
2022/03/26 07:32:38;;;;;;;10.70;9.20;;;8.80;99.90;;;;;;5066271;28;20584;-71
2022/03/26 07:35:06;;;;;;;13.50;9.40;;;8.90;99.90;;;;;;5066122;28;20826;-71
2022/03/26 07:37:33;;;;;;;12.20;8.75;;;9.10;99.90;;;;;;5065740;28;20196;-72
2022/03/26 07:40:00;;;;;;;12.15;9.30;;;9.20;99.90;;;;;;5083835;28;20566;-70
2022/03/26 07:42:27;;;;;;;15.43;9.77;;;9.40;99.90;;;;;;5084027;28;20224;-69
2022/03/26 07:44:55;;;;;;;9.90;8.73;;;9.60;99.90;;;;;;5086718;28;20524;-70
2022/03/26 07:47:21;;;;;;;9.83;8.50;;;9.80;99.90;;;;;;5069879;28;20274;-70
2022/03/26 07:49:48;;;;;;;10.43;7.87;;;10.00;99.90;;;;;;5080741;28;20498;-71
2022/03/26 07:52:16;;;;;;;12.00;7.90;;;10.20;99.90;;;;;;5080836;28;20450;-71
2022/03/26 07:54:42;;;;;;;12.07;6.80;;;10.40;99.90;;;;;;5084204;28;20578;-71
2022/03/26 07:57:09;;;;;;;10.20;8.37;;;10.50;99.90;;;;;;5068252;28;20524;-71
2022/03/26 07:59:36;;;;;;;12.00;9.40;;;10.70;99.90;;;;;;5075206;28;20595;-71
2022/03/26 08:02:04;;;;;;;16.33;9.00;;;10.90;99.90;;;;;;5081186;28;20447;-71
2022/03/26 08:04:31;;;;;;;10.83;8.47;;;11.00;99.90;;;;;;5084228;28;21346;-72
2022/03/26 08:06:58;;;;;;;15.10;9.57;;;11.20;99.90;;;;;;5079214;28;20446;-67
2022/03/26 08:09:24;;;;;;;19.53;10.40;;;11.50;99.90;;;;;;5087703;28;20863;-67
2022/03/26 08:11:51;;;;;;;10.70;8.73;;;11.60;99.90;;;;;;5077692;28;20451;-69
2022/03/26 08:14:18;;;;;;;12.77;8.73;;;11.90;99.90;;;;;;5078476;28;20465;-67
2022/03/26 08:16:44;;;;;;;17.73;8.53;;;12.00;99.90;;;;;;5075736;28;20507;-67
2022/03/26 08:19:12;;;;;;;16.87;9.40;;;12.20;99.90;;;;;;5075471;28;20945;-66
2022/03/26 08:21:39;;;;;;;13.60;10.47;;;12.40;99.90;;;;;;5087313;28;20492;-69
2022/03/26 08:24:06;;;;;;;13.73;9.00;;;12.60;99.90;;;;;;5084884;28;20477;-70
2022/03/26 08:26:33;;;;;;;10.87;9.33;;;12.80;99.90;;;;;;5066789;28;20455;-70
2022/03/26 08:29:01;;;;;;;16.37;9.97;;;12.90;99.90;;;;;;5069650;28;20482;-70
2022/03/26 08:31:31;;;;;;;14.60;11.33;;;12.90;99.90;;;;;;5070458;28;20450;-72
2022/03/26 08:33:59;;;;;;;17.13;10.10;;;13.00;99.90;;;;;;5068629;28;21156;-71
2022/03/26 08:36:27;;;;;;;13.50;9.13;;;13.10;99.90;;;;;;5074658;28;20509;-70
2022/03/26 08:38:54;;;;;;;15.37;9.80;;;13.20;99.90;;;;;;5080440;28;20454;-70
2022/03/26 08:41:23;;;;;;;16.57;10.90;;;13.30;99.90;;;;;;5071354;28;20447;-70
2022/03/26 08:43:51;;;;;;;13.53;9.13;;;13.40;99.90;;;;;;5063448;28;20840;-70
2022/03/26 08:46:18;;;;;;;13.77;10.57;;;13.60;99.90;;;;;;5071178;28;20958;-70
2022/03/26 08:48:46;;;;;;;15.53;11.03;;;13.80;99.90;;;;;;5072200;28;20491;-70
2022/03/26 08:51:13;;;;;;;18.13;11.73;;;13.80;99.90;;;;;;5075163;28;20455;-70
2022/03/26 08:53:41;;;;;;;13.73;9.90;;;14.00;99.90;;;;;;5076026;28;20470;-70
2022/03/26 08:56:09;;;;;;;18.03;10.33;;;14.20;99.90;;;;;;5072267;28;20450;-70
2022/03/26 08:58:37;;;;;;;15.63;10.43;;;14.30;99.90;;;;;;5079910;28;20890;-70
2022/03/26 09:01:06;;;;;;;15.97;10.67;;;14.40;99.90;;;;;;5075069;28;20531;-70
2022/03/26 09:03:37;;;;;;;16.97;11.40;;;14.50;99.90;;;;;;5068865;28;20447;-71
2022/03/26 09:06:04;;;;;;;94.33;90.23;;;14.70;99.90;;;;;;5074381;28;20552;-70
2022/03/26 09:08:32;;;;;;;12.20;9.87;;;14.90;99.90;;;;;;5065418;28;20623;-71
2022/03/26 09:11:00;;;;;;;18.20;11.70;;;15.10;99.90;;;;;;5073157;28;20458;-70
2022/03/26 09:13:26;;;;;;;14.30;10.67;;;15.40;99.90;;;;;;5067685;28;20487;-71
2022/03/26 09:15:53;;;;;;;16.50;11.13;;;15.50;99.90;;;;;;5080536;28;20459;-71
2022/03/26 09:18:21;;;;;;;15.60;10.80;;;15.60;99.90;;;;;;5075223;28;20863;-71
2022/03/26 09:20:48;;;;;;;16.97;10.43;;;15.80;99.90;;;;;;5072063;28;20504;-71
2022/03/26 09:23:14;;;;;;;15.63;10.80;;;16.00;99.90;;;;;;5062725;28;20493;-70
2022/03/26 09:25:41;;;;;;;15.90;11.40;;;16.20;99.90;;;;;;5067012;28;20509;-71
2022/03/26 09:28:10;;;;;;;22.80;11.70;;;16.40;99.90;;;;;;5072809;28;20487;-71
2022/03/26 09:30:37;;;;;;;17.30;13.10;;;16.50;99.90;;;;;;5072070;28;20509;-71
2022/03/26 09:33:04;;;;;;;15.37;12.03;;;16.60;99.90;;;;;;5074229;28;20467;-71
2022/03/26 09:35:31;;;;;;;17.60;12.43;;;16.60;99.90;;;;;;5072865;28;20466;-72
2022/03/26 09:37:58;;;;;;;15.87;13.10;;;16.80;99.90;;;;;;5070177;28;20439;-72
2022/03/26 09:40:25;;;;;;;12.77;10.23;;;17.00;99.90;;;;;;5067777;28;20495;-71
2022/03/26 09:42:52;;;;;;;15.63;11.57;;;17.30;99.90;;;;;;5066641;28;20459;-71
2022/03/26 09:45:22;;;;;;;17.73;11.77;;;17.40;98.80;;;;;;5074134;28;20467;-71
2022/03/26 09:47:49;;;;;;;23.07;13.10;;;17.50;98.40;;;;;;5062341;28;20555;-71
2022/03/26 09:50:17;;;;;;;21.13;13.63;;;17.70;98.30;;;;;;5063318;28;20521;-71
2022/03/26 09:52:44;;;;;;;17.33;13.20;;;17.70;98.00;;;;;;5065603;28;20570;-71
2022/03/26 09:55:12;;;;;;;19.37;12.20;;;17.80;97.60;;;;;;5065627;28;20471;-70
2022/03/26 09:57:39;;;;;;;19.40;12.20;;;17.90;97.10;;;;;;5067513;28;20447;-71
2022/03/26 10:00:07;;;;;;;17.37;11.50;;;18.10;97.30;;;;;;5074328;28;20443;-71
2022/03/26 10:02:35;;;;;;;18.70;11.27;;;18.20;96.60;;;;;;5071124;28;21139;-75
2022/03/26 10:05:04;;;;;;;22.17;11.63;;;18.40;96.40;;;;;;5060958;28;21553;-71
2022/03/26 10:07:31;;;;;;;13.27;10.73;;;18.70;95.80;;;;;;5082028;28;20487;-71
2022/03/26 10:09:58;;;;;;;13.70;12.17;;;18.80;95.60;;;;;;5071922;28;20481;-71
2022/03/26 10:12:26;;;;;;;18.30;12.93;;;19.10;95.50;;;;;;5073942;28;20505;-70
2022/03/26 10:14:54;;;;;;;16.20;11.20;;;19.30;95.10;;;;;;5071120;28;20478;-70
2022/03/26 10:17:23;;;;;;;87.43;83.70;;;19.60;94.30;;;;;;5064569;28;20460;-70
2022/03/26 10:19:53;;;;;;;18.97;12.83;;;19.70;93.60;;;;;;5082016;28;20794;-70
2022/03/26 10:22:31;;;;;;;12.57;9.93;;;19.80;93.20;;;;;;5084108;28;20446;-71
2022/03/26 10:24:59;;;;;;;16.63;11.07;;;19.90;92.90;;;;;;5053988;28;20486;-70
2022/03/26 10:27:26;;;;;;;17.93;11.13;;;20.00;93.00;;;;;;5062246;28;20524;-72
2022/03/26 10:29:55;;;;;;;13.80;10.50;;;20.20;92.60;;;;;;5070619;28;20851;-71
2022/03/26 10:35:30;;;;;;;17.57;11.40;;;20.50;91.70;;;;;;5072488;28;20473;-71
2022/03/26 10:37:59;;;;;;;15.73;10.10;;;20.60;91.40;;;;;;5074192;28;20499;-71
2022/03/26 10:40:31;;;;;;;18.77;10.90;;;20.80;91.10;;;;;;5077703;28;20474;-71
2022/03/26 10:43:04;;;;;;;12.00;9.70;;;21.10;90.60;;;;;;5086196;28;21091;-71
2022/03/26 10:45:33;;;;;;;14.20;10.83;;;21.30;90.00;;;;;;5081222;28;20486;-71
2022/03/26 10:48:01;;;;;;;14.60;10.60;;;21.30;88.30;;;;;;5070063;28;20958;-71
2022/03/26 10:50:33;;;;;;;15.57;11.13;;;21.40;88.40;;;;;;5064091;28;20958;-71
2022/03/26 10:53:06;;;;;;;13.77;9.60;;;21.50;86.00;;;;;;5061317;28;20546;-71
2022/03/26 10:55:34;;;;;;;13.80;9.87;;;21.60;86.50;;;;;;5070901;28;20684;-71
2022/03/26 10:58:05;;;;;;;13.30;10.90;;;21.70;85.50;;;;;;5070092;28;20547;-71
2022/03/26 11:00:31;;;;;;;12.93;10.43;;;21.80;84.30;;;;;;5075921;28;20828;-71
2022/03/26 11:02:58;;;;;;;17.10;11.30;;;22.00;84.40;;;;;;5065913;28;20551;-71
2022/03/26 11:05:25;;;;;;;13.10;10.33;;;22.30;83.30;;;;;;5066836;28;20910;-71
2022/03/26 11:07:53;;;;;;;18.90;11.60;;;22.30;81.70;;;;;;5071647;28;20523;-71
2022/03/26 11:10:24;;;;;;;12.77;10.00;;;22.40;81.90;;;;;;5066239;28;20574;-71
2022/03/26 11:12:51;;;;;;;13.57;10.97;;;22.40;82.00;;;;;;5077900;28;20518;-72
2022/03/26 11:15:22;;;;;;;15.40;10.70;;;22.60;80.30;;;;;;5084067;28;20547;-71
2022/03/26 11:18:02;;;;;;;19.70;11.37;;;22.80;79.80;;;;;;5070207;28;21144;-71
2022/03/26 11:20:54;;;;;;;11.03;8.53;;;22.80;79.10;;;;;;5074107;28;20462;-69
2022/03/26 11:23:32;;;;;;;14.20;9.77;;;23.10;83.50;;;;;;5064683;28;20467;-66
2022/03/26 11:26:28;;;;;;;12.30;9.40;;;23.70;80.80;;;;;;5077100;28;20457;-67
2022/03/26 11:29:06;;;;;;;12.00;9.27;;;24.30;78.40;;;;;;5057969;28;20493;-66
2022/03/26 11:31:45;;;;;;;11.20;9.17;;;24.80;78.60;;;;;;5072754;28;20450;-68
2022/03/26 11:34:12;;;;;;;15.70;10.73;;;25.10;76.00;;;;;;5075927;28;20798;-66
2022/03/26 11:36:39;;;;;;;13.97;10.10;;;25.60;76.20;;;;;;5079625;28;20542;-67
2022/03/26 11:39:10;;;;;;;17.67;12.30;;;26.10;73.70;;;;;;5065808;28;20496;-68
2022/03/26 11:41:39;;;;;;;16.30;10.20;;;26.30;70.50;;;;;;5064660;28;20504;-68
2022/03/26 11:44:07;;;;;;;15.33;10.87;;;26.60;71.20;;;;;;5073950;28;20584;-67
2022/03/26 11:52:15;;;;;;;16.27;8.17;;;28.90;65.90;;;;;;5077948;28;20738;-71
2022/03/26 11:54:42;;;;;;;;;;;30.00;62.40;;;;;;5072366;28;20479;-69
2022/03/26 11:57:15;;;;;;;13.02;10.00;;;30.70;60.50;;;;;;5062557;28;20435;-69
2022/03/26 11:59:42;;;;;;;104.73;100.97;;;30.60;58.60;;;;;;5058780;28;20234;-69
2022/03/26 12:02:21;;;;;;;11.07;9.33;;;31.30;56.80;;;;;;5077446;28;20462;-68
2022/03/26 12:04:50;;;;;;;9.97;8.50;;;32.20;54.90;;;;;;5076157;28;20462;-71
2022/03/26 12:07:17;;;;;;;12.00;9.13;;;32.80;53.80;;;;;;5060264;28;20438;-67
2022/03/26 12:09:44;;;;;;;8.47;7.60;;;33.40;51.20;;;;;;5072447;28;20508;-70
2022/03/26 12:12:17;;;;;;;11.10;8.77;;;33.50;50.90;;;;;;5074921;28;20466;-71
2022/03/26 12:15:22;;;;;;;9.30;7.90;;;33.80;50.10;;;;;;5065756;28;20478;-71
2022/03/26 12:17:50;;;;;;;9.20;7.87;;;34.10;47.80;;;;;;5062503;28;20467;-71
2022/03/26 12:20:26;;;;;;;9.80;8.13;;;34.40;47.30;;;;;;5067588;28;20454;-72
2022/03/26 12:23:03;;;;;;;9.70;8.60;;;34.60;46.60;;;;;;5078883;28;21036;-70
2022/03/26 12:25:38;;;;;;;8.60;7.70;;;34.70;44.90;;;;;;5073704;28;20498;-70
2022/03/26 12:28:07;;;;;;;7.93;7.10;;;34.90;44.50;;;;;;5083342;28;20465;-71
2022/03/26 12:30:34;;;;;;;7.00;5.73;;;34.90;44.90;;;;;;5078045;28;20490;-71
2022/03/26 12:33:00;;;;;;;8.30;5.97;;;35.40;43.20;;;;;;5067252;28;20438;-71
2022/03/26 12:35:28;;;;;;;7.33;4.77;;;35.50;41.80;;;;;;5070942;28;20512;-71
2022/03/26 12:37:55;;;;;;;7.80;5.90;;;34.50;42.10;;;;;;5074548;28;20490;-70
2022/03/26 12:40:22;;;;;;;4.90;4.40;;;33.60;41.80;;;;;;5077555;28;20462;-71
2022/03/26 12:42:54;;;;;;;4.80;3.90;;;34.40;43.00;;;;;;5077234;28;20513;-71
2022/03/26 12:45:23;;;;;;;4.20;3.80;;;34.40;41.00;;;;;;5073541;28;20503;-71
2022/03/26 12:47:50;;;;;;;43.43;41.33;;;34.40;41.20;;;;;;5070863;28;20584;-73
2022/03/26 12:50:21;;;;;;;88.83;85.23;;;34.90;40.80;;;;;;5076483;28;20474;-69